createdAt,value
2019-01-14T00:01:21.014Z,96900.22
2019-01-14T00:03:51.204Z,96903.53
2019-01-14T00:06:21.846Z,96904.56
2019-01-14T00:08:52.109Z,96912.62
2019-01-14T00:11:22.334Z,96904.11
2019-01-14T00:13:52.988Z,96900.94
2019-01-14T00:16:25.692Z,96889.83
2019-01-14T00:18:55.969Z,96900.06
2019-01-14T00:21:27.558Z,96898.87
2019-01-14T00:23:57.823Z,96908.95
2019-01-14T00:26:28.321Z,96915.20
2019-01-14T00:28:59.418Z,96932.52
2019-01-14T00:31:29.664Z,96940.02
2019-01-14T00:34:01.165Z,96941.12
2019-01-14T00:36:32.091Z,96956.52
2019-01-14T00:39:05.754Z,96960.48
2019-01-14T00:41:36.289Z,96960.48
2019-01-14T00:44:06.549Z,96966.44
2019-01-14T00:46:37.383Z,96959.56
2019-01-14T00:49:07.881Z,96970.43
2019-01-14T00:51:38.098Z,96977.54
2019-01-14T00:54:08.328Z,96968.44
2019-01-14T00:56:38.581Z,96979.30
2019-01-14T00:59:09.039Z,96983.66
2019-01-14T01:01:40.040Z,96975.23
2019-01-14T01:04:10.371Z,96967.19
2019-01-14T01:06:40.871Z,96979.13
2019-01-14T01:09:11.049Z,96989.13
2019-01-14T01:11:41.325Z,96991.36
2019-01-14T01:14:11.551Z,96997.28
2019-01-14T01:16:42.024Z,96988.86
2019-01-14T01:19:13.276Z,96994.80
2019-01-14T01:21:43.443Z,96996.66
2019-01-14T01:24:16.308Z,96998.02
2019-01-14T01:26:46.500Z,96999.80
2019-01-14T01:29:16.956Z,96994.50
2019-01-14T01:31:47.282Z,97009.81
2019-01-14T01:34:17.608Z,97014.72
2019-01-14T01:36:47.788Z,97020.66
2019-01-14T01:39:20.119Z,97021.75
2019-01-14T01:41:50.320Z,97019.61
2019-01-14T01:44:22.527Z,97031.48
2019-01-14T01:46:54.653Z,97030.94
2019-01-14T01:49:26.176Z,97036.31
2019-01-14T01:51:56.563Z,97042.69
2019-01-14T01:54:26.805Z,97058.73
2019-01-14T01:56:57.588Z,97061.34
2019-01-14T01:59:27.804Z,97074.13
2019-01-14T02:01:58.042Z,97068.47
2019-01-14T02:04:28.204Z,97078.20
2019-01-14T02:06:58.621Z,97073.56
2019-01-14T02:09:28.794Z,97071.72
2019-01-14T02:11:59.268Z,97078.68
2019-01-14T02:14:29.473Z,97060.97
2019-01-14T02:16:59.699Z,97063.19
2019-01-14T02:19:29.857Z,97054.65
2019-01-14T02:22:01.128Z,97064.77
2019-01-14T02:24:31.326Z,97064.66
2019-01-14T02:27:01.822Z,97065.52
2019-01-14T02:29:32.076Z,97066.25
2019-01-14T02:32:02.334Z,97066.55
2019-01-14T02:34:32.953Z,97067.84
2019-01-14T02:37:03.256Z,97073.58
2019-01-14T02:39:34.075Z,97071.45
2019-01-14T02:42:05.615Z,97064.13
2019-01-14T02:44:35.828Z,97067.27
2019-01-14T02:47:06.113Z,97069.20
2019-01-14T02:49:36.409Z,97066.08
2019-01-14T02:52:09.770Z,97072.30
2019-01-14T02:54:40.002Z,97074.70
2019-01-14T02:57:10.149Z,97092.41
2019-01-14T02:59:40.395Z,97108.83
2019-01-14T03:02:10.566Z,97109.85
2019-01-14T03:04:40.757Z,97110.02
2019-01-14T03:07:11.272Z,97116.34
2019-01-14T03:09:41.468Z,97129.33
2019-01-14T03:12:11.710Z,97134.23
2019-01-14T03:14:41.950Z,97133.80
2019-01-14T03:17:12.476Z,97136.30
2019-01-14T03:19:42.620Z,97139.66
2019-01-14T03:22:13.022Z,97134.99
2019-01-14T03:24:43.168Z,97155.38
2019-01-14T03:27:13.451Z,97163.92
2019-01-14T03:29:46.875Z,97154.73
2019-01-14T03:32:17.130Z,97164.61
2019-01-14T03:34:47.292Z,97171.17
2019-01-14T03:37:17.659Z,97165.70
2019-01-14T03:39:48.123Z,97169.33
2019-01-14T03:42:18.349Z,97174.90
2019-01-14T03:44:52.122Z,97182.89
2019-01-14T03:47:22.274Z,97194.11
2019-01-14T03:49:52.757Z,97202.47
2019-01-14T03:52:22.984Z,97206.27
2019-01-14T03:54:53.328Z,97208.12
2019-01-14T03:57:23.720Z,97205.96
2019-01-14T03:59:55.179Z,97207.69
2019-01-14T04:02:25.335Z,97192.13
2019-01-14T04:04:55.527Z,97198.63
2019-01-14T04:07:27.353Z,97202.47
2019-01-14T04:09:57.549Z,97190.85
2019-01-14T04:12:28.019Z,97198.19
2019-01-14T04:14:58.253Z,97201.22
2019-01-14T04:17:28.538Z,97196.73
2019-01-14T04:19:58.741Z,97210.29
2019-01-14T04:22:28.930Z,97197.10
2019-01-14T04:24:59.123Z,97202.88
2019-01-14T04:27:30.785Z,97204.54
2019-01-14T04:30:00.999Z,97219.25
2019-01-14T04:32:31.231Z,97219.88
2019-01-14T04:35:01.444Z,97229.05
2019-01-14T04:37:33.266Z,97227.85
2019-01-14T04:40:03.566Z,97230.83
2019-01-14T04:42:35.096Z,97244.69
2019-01-14T04:45:07.924Z,97244.64
2019-01-14T04:47:38.168Z,97250.72
2019-01-14T04:50:11.287Z,97258.05
2019-01-14T04:52:41.843Z,97254.20
2019-01-14T04:55:12.136Z,97260.48
2019-01-14T04:57:42.608Z,97253.74
2019-01-14T05:00:18.125Z,97260.30
2019-01-14T05:02:48.275Z,97257.36
2019-01-14T05:05:18.811Z,97260.52
2019-01-14T05:10:26.211Z,97275.18
2019-01-14T05:12:56.670Z,97275.84
2019-01-14T05:15:26.857Z,97274.83
2019-01-14T05:17:57.096Z,97287.98
2019-01-14T05:20:28.271Z,97279.91
2019-01-14T05:22:58.537Z,97291.50
2019-01-14T05:25:32.813Z,97289.00
2019-01-14T05:28:03.360Z,97299.39
2019-01-14T05:30:33.609Z,97295.00
2019-01-14T05:33:05.153Z,97313.56
2019-01-14T05:35:35.327Z,97313.56
2019-01-14T05:38:05.636Z,97315.89
2019-01-14T05:40:37.883Z,97314.31
2019-01-14T05:43:08.172Z,97320.28
2019-01-14T05:45:39.744Z,97330.84
2019-01-14T05:48:12.479Z,97332.17
2019-01-14T05:50:42.831Z,97335.41
2019-01-14T05:53:13.364Z,97332.91
2019-01-14T05:55:44.160Z,97337.05
2019-01-14T05:58:17.506Z,97339.83
2019-01-14T06:00:48.834Z,97340.70
2019-01-14T06:03:20.602Z,97337.72
2019-01-14T06:05:51.124Z,97350.88
2019-01-14T06:08:21.311Z,97337.96
2019-01-14T06:10:52.735Z,97346.98
2019-01-14T06:13:23.335Z,97347.49
2019-01-14T06:15:53.809Z,97336.04
2019-01-14T06:18:24.068Z,97341.34
2019-01-14T06:20:55.677Z,97341.39
2019-01-14T06:23:26.056Z,97339.20
2019-01-14T06:25:56.767Z,97344.39
2019-01-14T06:28:26.987Z,97351.22
2019-01-14T06:30:57.206Z,97358.20
2019-01-14T06:33:27.452Z,97350.94
2019-01-14T06:35:59.146Z,97350.20
2019-01-14T06:38:29.727Z,97363.73
2019-01-14T06:41:00.859Z,97365.72
2019-01-14T06:43:31.050Z,97365.82
2019-01-14T06:46:02.528Z,97357.91
2019-01-14T06:48:32.738Z,97358.63
2019-01-14T06:51:02.993Z,97356.73
2019-01-14T06:53:34.821Z,97365.80
2019-01-14T06:56:05.143Z,97372.00
2019-01-14T06:58:35.378Z,97369.96
2019-01-14T07:01:05.930Z,97381.55
2019-01-14T07:07:04.777Z,97394.96
2019-01-14T07:09:36.651Z,97410.89
2019-01-14T07:12:06.801Z,97415.98
2019-01-14T07:14:37.149Z,97416.43
2019-01-14T07:17:07.709Z,97419.15
2019-01-14T07:19:37.898Z,97420.61
2019-01-14T07:22:08.119Z,97420.71
2019-01-14T07:24:39.163Z,97421.52
2019-01-14T07:27:09.960Z,97422.63
2019-01-14T07:29:40.165Z,97428.21
2019-01-14T07:32:10.408Z,97429.28
2019-01-14T07:34:41.871Z,97427.36
2019-01-14T07:37:12.325Z,97426.13
2019-01-14T07:39:42.550Z,97421.95
2019-01-14T07:42:12.805Z,97427.40
2019-01-14T07:44:43.373Z,97428.86
2019-01-14T07:47:13.560Z,97426.78
2019-01-14T07:49:43.807Z,97432.36
2019-01-14T07:52:14.472Z,97442.74
2019-01-14T07:54:44.900Z,97456.40
2019-01-14T07:57:17.471Z,97455.45
2019-01-14T07:59:48.254Z,97463.08
2019-01-14T08:02:20.117Z,97470.48
2019-01-14T08:04:52.248Z,97474.56
2019-01-14T08:07:22.683Z,97472.27
2019-01-14T08:09:53.249Z,97475.99
2019-01-14T08:12:24.127Z,97470.64
2019-01-14T08:15:01.588Z,97481.87
2019-01-14T08:17:31.819Z,97487.19
2019-01-14T08:20:01.990Z,97486.95
2019-01-14T08:22:32.360Z,97497.19
2019-01-14T08:25:05.606Z,97513.11
2019-01-14T08:27:35.852Z,97506.59
2019-01-14T08:30:09.932Z,97506.95
2019-01-14T08:32:40.547Z,97500.88
2019-01-14T08:35:11.375Z,97519.02
2019-01-14T08:37:41.591Z,97524.51
2019-01-14T08:40:14.548Z,97528.11
2019-01-14T08:42:44.944Z,97532.56
2019-01-14T08:45:19.807Z,97522.17
2019-01-14T08:47:49.975Z,97528.50
2019-01-14T08:50:21.481Z,97544.57
2019-01-14T08:53:02.130Z,97542.50
2019-01-14T08:55:33.748Z,97539.20
2019-01-14T08:58:04.083Z,97536.77
2019-01-14T09:00:34.643Z,97524.05
2019-01-14T09:03:09.680Z,97520.45
2019-01-14T09:05:42.522Z,97537.91
2019-01-14T09:08:28.594Z,97541.30
2019-01-14T09:10:52.340Z,97554.73
2019-01-14T09:13:22.717Z,97555.19
2019-01-14T09:15:55.449Z,97550.56
2019-01-14T09:18:26.591Z,97553.72
2019-01-14T09:20:59.756Z,97563.28
2019-01-14T09:23:30.262Z,97566.44
2019-01-14T09:26:00.474Z,97578.03
2019-01-14T09:28:33.727Z,97564.00
2019-01-14T09:31:04.041Z,97565.55
2019-01-14T09:33:34.196Z,97568.24
2019-01-14T09:36:04.968Z,97560.84
2019-01-14T09:38:35.991Z,97554.73
2019-01-14T09:41:06.582Z,97561.74
2019-01-14T09:43:36.803Z,97564.47
2019-01-14T09:46:08.705Z,97563.34
2019-01-14T09:48:44.240Z,97567.39
2019-01-14T09:51:14.510Z,97573.34
2019-01-14T09:53:44.908Z,97570.79
2019-01-14T09:56:16.003Z,97584.98
2019-01-14T09:58:46.437Z,97582.73
2019-01-14T10:01:19.805Z,97573.67
2019-01-14T10:03:50.006Z,97574.79
2019-01-14T10:06:20.589Z,97577.11
2019-01-14T10:08:50.987Z,97582.59
2019-01-14T10:11:21.227Z,97581.93
2019-01-14T10:13:51.840Z,97590.28
2019-01-14T10:16:22.216Z,97594.47
2019-01-14T10:18:52.433Z,97589.88
2019-01-14T10:21:22.992Z,97595.61
2019-01-14T10:23:53.136Z,97590.45
2019-01-14T10:26:23.453Z,97577.45
2019-01-14T10:28:53.945Z,97576.20
2019-01-14T10:31:24.219Z,97574.52
2019-01-14T10:33:54.910Z,97573.05
2019-01-14T10:36:25.802Z,97578.03
2019-01-14T10:38:56.247Z,97582.05
2019-01-14T10:41:27.055Z,97589.00
2019-01-14T10:43:58.053Z,97580.68
2019-01-14T10:46:28.609Z,97583.06
2019-01-14T10:49:09.616Z,97587.08
2019-01-14T10:51:43.670Z,97589.27
2019-01-14T10:54:17.234Z,97598.59
2019-01-14T10:56:47.569Z,97597.63
2019-01-14T10:59:17.816Z,97594.58
2019-01-14T11:01:49.771Z,97591.00
2019-01-14T11:04:19.945Z,97580.55
2019-01-14T11:06:58.030Z,97607.38
2019-01-14T11:09:28.943Z,97597.28
2019-01-14T11:11:59.187Z,97609.23
2019-01-14T11:14:29.721Z,97595.61
2019-01-14T11:17:00.212Z,97595.56
2019-01-14T11:19:33.514Z,97609.31
2019-01-14T11:22:04.293Z,97589.77
2019-01-14T11:24:51.503Z,97596.09
2019-01-14T11:27:22.180Z,97590.41
2019-01-14T11:29:54.504Z,97595.50
2019-01-14T11:32:26.419Z,97588.45
2019-01-14T11:35:02.486Z,97602.16
2019-01-14T11:37:32.875Z,97593.69
2019-01-14T11:40:05.180Z,97598.78
2019-01-14T11:42:35.721Z,97586.02
2019-01-14T11:45:07.773Z,97594.78
2019-01-14T11:47:39.241Z,97590.91
2019-01-14T11:50:12.056Z,97588.92
2019-01-14T11:52:42.676Z,97591.64
2019-01-14T11:55:14.444Z,97598.61
2019-01-14T11:57:44.914Z,97601.65
2019-01-14T12:00:27.175Z,97597.84
2019-01-14T12:02:57.898Z,97602.38
2019-01-14T12:05:28.635Z,97605.28
2019-01-14T12:08:02.234Z,97604.76
2019-01-14T12:10:36.957Z,97597.25
2019-01-14T12:13:58.616Z,97618.55
2019-01-14T12:16:29.907Z,97611.23
2019-01-14T12:19:03.405Z,97602.73
2019-01-14T12:21:36.803Z,97603.81
2019-01-14T12:24:08.495Z,97595.84
2019-01-14T12:26:40.657Z,97591.53
2019-01-14T12:29:25.705Z,97603.19
2019-01-14T12:31:55.936Z,97587.69
2019-01-14T12:34:28.810Z,97584.48
2019-01-14T12:37:01.178Z,97596.52
2019-01-14T12:39:31.893Z,97592.27
2019-01-14T12:42:06.125Z,97584.41
2019-01-14T12:44:37.048Z,97591.52
2019-01-14T12:47:08.436Z,97602.28
2019-01-14T12:49:39.321Z,97607.84
2019-01-14T12:52:09.752Z,97600.09
2019-01-14T12:54:39.951Z,97595.42
2019-01-14T12:57:10.529Z,97575.97
2019-01-14T12:59:40.845Z,97586.34
2019-01-14T13:02:11.146Z,97588.71
2019-01-14T13:04:44.056Z,97594.83
2019-01-14T13:07:15.741Z,97595.72
2019-01-14T13:09:47.346Z,97595.66
2019-01-14T13:12:19.059Z,97600.07
2019-01-14T13:14:54.357Z,97592.51
2019-01-14T13:17:26.538Z,97598.73
2019-01-14T13:19:58.917Z,97622.98
2019-01-14T13:22:29.768Z,97641.78
2019-01-14T13:25:00.015Z,97683.73
2019-01-14T13:27:44.290Z,97742.36
2019-01-14T13:30:23.426Z,97713.38
2019-01-14T13:32:53.745Z,97723.68
2019-01-14T13:35:25.338Z,97719.52
2019-01-14T13:37:55.635Z,97722.62
2019-01-14T13:40:26.885Z,97730.13
2019-01-14T13:42:57.657Z,97758.80
2019-01-14T13:45:28.045Z,97765.04
2019-01-14T13:47:58.488Z,97761.97
2019-01-14T13:50:29.035Z,97761.13
2019-01-14T13:52:59.410Z,97748.76
2019-01-14T13:55:29.613Z,97762.56
2019-01-14T13:58:00.286Z,97773.27
2019-01-14T14:00:32.636Z,97774.90
2019-01-14T14:03:11.055Z,97777.08
2019-01-14T14:05:43.790Z,97786.02
2019-01-14T14:08:14.092Z,97803.88
2019-01-14T14:10:52.370Z,97820.97
2019-01-14T14:13:22.760Z,97819.27
2019-01-14T14:15:54.212Z,97823.88
2019-01-14T14:18:34.570Z,97825.98
2019-01-14T14:21:07.639Z,97827.34
2019-01-14T14:23:48.774Z,97833.48
2019-01-14T14:26:42.139Z,97840.27
2019-01-14T14:29:15.529Z,97837.47
2019-01-14T14:32:12.751Z,97861.39
2019-01-14T14:35:04.832Z,97872.58
2019-01-14T14:37:35.632Z,97879.44
2019-01-14T14:41:14.019Z,97876.02
2019-01-14T14:43:22.948Z,97871.57
2019-01-14T14:45:53.469Z,97887.09
2019-01-14T14:48:55.750Z,97890.55
2019-01-14T14:51:36.322Z,97892.47
2019-01-14T14:54:12.033Z,97900.45
2019-01-14T14:56:43.252Z,97891.63
2019-01-14T14:59:16.982Z,97895.29
2019-01-14T15:01:49.003Z,97899.05
2019-01-14T15:04:22.957Z,97911.31
2019-01-14T15:06:55.624Z,97909.62
2019-01-14T15:09:31.679Z,97919.78
2019-01-14T15:12:03.325Z,97921.77
2019-01-14T15:14:35.241Z,97924.73
2019-01-14T15:17:16.164Z,97924.91
2019-01-14T15:19:50.274Z,97927.16
2019-01-14T15:22:22.662Z,97933.33
2019-01-14T15:24:56.773Z,97938.50
2019-01-14T15:27:27.368Z,97946.11
2019-01-14T15:33:40.462Z,97956.71
2019-01-14T15:36:10.780Z,97973.67
2019-01-14T15:38:41.410Z,97980.13
2019-01-14T15:41:13.364Z,97991.16
2019-01-14T15:43:46.006Z,97999.73
2019-01-14T15:46:16.472Z,98011.66
2019-01-14T15:48:47.106Z,98005.09
2019-01-14T15:51:18.015Z,98007.44
2019-01-14T15:53:48.407Z,98019.85
2019-01-14T15:56:19.099Z,98021.11
2019-01-14T15:58:49.374Z,98035.42
2019-01-14T16:01:20.341Z,98031.04
2019-01-14T16:03:50.579Z,98029.68
2019-01-14T16:06:22.263Z,98028.28
2019-01-14T16:08:54.524Z,98036.98
2019-01-14T16:11:24.787Z,98044.29
2019-01-14T16:13:55.868Z,98042.82
2019-01-14T16:16:28.935Z,98047.13
2019-01-14T16:19:01.030Z,98047.73
2019-01-14T16:21:31.811Z,98065.13
2019-01-14T16:24:05.120Z,98057.60
2019-01-14T16:26:36.467Z,98052.00
2019-01-14T16:29:08.375Z,98060.53
2019-01-14T16:31:42.215Z,98073.84
2019-01-14T16:34:21.704Z,98078.63
2019-01-14T16:36:55.239Z,98076.36
2019-01-14T16:39:28.289Z,98078.73
2019-01-14T16:42:10.031Z,98076.75
2019-01-14T16:44:48.370Z,98086.73
2019-01-14T16:47:20.136Z,98091.84
2019-01-14T16:49:56.332Z,98090.05
2019-01-14T16:52:27.817Z,98093.13
2019-01-14T16:55:01.708Z,98097.03
2019-01-14T16:57:32.483Z,98104.69
2019-01-14T17:00:08.317Z,98107.09
2019-01-14T17:02:43.695Z,98121.01
2019-01-14T17:05:33.559Z,98119.66
2019-01-14T17:08:07.070Z,98123.78
2019-01-14T17:14:14.149Z,98117.29
2019-01-14T17:17:02.752Z,98123.91
2019-01-14T17:19:35.596Z,98130.27
2019-01-14T17:22:13.451Z,98136.19
2019-01-14T17:24:45.735Z,98140.28
2019-01-14T17:27:19.131Z,98145.93
2019-01-14T17:30:10.857Z,98148.53
2019-01-14T17:32:43.411Z,98158.28
2019-01-14T17:35:17.998Z,98169.44
2019-01-14T17:37:52.216Z,98170.83
2019-01-14T17:40:32.747Z,98183.28
2019-01-14T17:43:03.620Z,98187.19
2019-01-14T17:45:35.509Z,98188.80
2019-01-14T17:48:06.554Z,98194.28
2019-01-14T17:50:37.100Z,98195.41
2019-01-14T17:53:31.570Z,98197.55
2019-01-14T17:56:05.891Z,98200.89
2019-01-14T17:58:43.369Z,98209.58
2019-01-14T18:01:21.189Z,98210.59
2019-01-14T18:03:55.093Z,98213.08
2019-01-14T18:06:27.427Z,98217.06
2019-01-14T18:11:51.115Z,98220.64
2019-01-14T18:14:31.451Z,98226.60
2019-01-14T18:17:07.206Z,98234.67
2019-01-14T18:19:58.845Z,98246.07
2019-01-14T18:22:45.130Z,98252.16
2019-01-14T18:28:59.427Z,98245.02
2019-01-14T18:31:30.833Z,98253.73
2019-01-14T18:34:03.080Z,98258.40
2019-01-14T18:36:34.079Z,98269.59
2019-01-14T18:39:10.091Z,98264.70
2019-01-14T18:41:42.050Z,98274.48
2019-01-14T18:44:16.353Z,98279.95
2019-01-14T18:46:46.663Z,98277.36
2019-01-14T18:49:20.479Z,98284.17
2019-01-14T18:51:51.552Z,98282.28
2019-01-14T18:54:21.891Z,98284.52
2019-01-14T18:56:53.257Z,98291.59
2019-01-14T18:59:23.649Z,98299.58
2019-01-14T19:01:55.761Z,98298.81
2019-01-14T19:04:44.320Z,98301.31
2019-01-14T19:07:17.530Z,98296.77
2019-01-14T19:09:48.352Z,98302.56
2019-01-14T19:12:23.041Z,98303.29
2019-01-14T19:14:53.366Z,98302.70
2019-01-14T19:17:28.839Z,98306.23
2019-01-14T19:20:03.274Z,98303.99
2019-01-14T19:22:34.825Z,98317.05
2019-01-14T19:25:06.302Z,98312.16
2019-01-14T19:27:39.476Z,98308.09
2019-01-14T19:30:43.776Z,98305.50
2019-01-14T19:33:15.880Z,98314.25
2019-01-14T19:35:47.649Z,98321.02
2019-01-14T19:38:20.263Z,98318.81
2019-01-14T19:41:02.017Z,98321.31
2019-01-14T19:43:34.612Z,98335.34
2019-01-14T19:46:07.709Z,98334.70
2019-01-14T19:48:43.378Z,98342.81
2019-01-14T19:51:16.652Z,98331.86
2019-01-14T19:53:57.321Z,98346.25
2019-01-14T19:56:27.636Z,98360.53
2019-01-14T19:58:57.933Z,98358.45
2019-01-14T20:01:30.210Z,98363.30
2019-01-14T20:04:02.996Z,98374.05
2019-01-14T20:06:34.445Z,98369.78
2019-01-14T20:09:06.392Z,98371.94
2019-01-14T20:11:38.675Z,98376.16
2019-01-14T20:14:33.100Z,98383.39
2019-01-14T20:17:09.880Z,98381.22
2019-01-14T20:19:40.736Z,98381.59
2019-01-14T20:22:13.825Z,98380.37
2019-01-14T20:24:46.222Z,98379.69
2019-01-14T20:27:18.946Z,98379.48
2019-01-14T20:29:52.576Z,98379.66
2019-01-14T20:32:22.915Z,98380.63
2019-01-14T20:34:53.516Z,98383.98
2019-01-14T20:37:25.305Z,98379.40
2019-01-14T20:39:55.654Z,98372.44
2019-01-14T20:42:29.500Z,98382.63
2019-01-14T20:44:59.861Z,98382.07
2019-01-14T20:47:30.350Z,98392.06
2019-01-14T20:50:03.016Z,98390.13
2019-01-14T20:52:35.945Z,98381.84
2019-01-14T20:55:06.930Z,98389.27
2019-01-14T20:57:37.245Z,98391.50
2019-01-14T21:00:19.594Z,98395.03
2019-01-14T21:02:53.152Z,98391.64
2019-01-14T21:05:27.014Z,98410.72
2019-01-14T21:07:57.261Z,98401.31
2019-01-14T21:10:29.796Z,98410.90
2019-01-14T21:13:00.393Z,98414.22
2019-01-14T21:15:30.757Z,98409.48
2019-01-14T21:18:01.485Z,98408.13
2019-01-14T21:20:34.259Z,98413.58
2019-01-14T21:23:04.635Z,98408.23
2019-01-14T21:25:35.774Z,98411.81
2019-01-14T21:28:10.248Z,98408.67
2019-01-14T21:30:44.244Z,98412.34
2019-01-14T21:33:19.799Z,98416.80
2019-01-14T21:35:50.234Z,98412.62
2019-01-14T21:38:23.686Z,98410.45
2019-01-14T21:41:17.718Z,98418.71
2019-01-14T21:43:49.272Z,98419.59
2019-01-14T21:46:28.906Z,98420.80
2019-01-14T21:49:07.784Z,98423.09
2019-01-14T21:51:38.157Z,98424.98
2019-01-14T21:54:11.970Z,98432.91
2019-01-14T21:56:46.297Z,98436.80
2019-01-14T21:59:19.437Z,98435.08
2019-01-14T22:01:55.907Z,98452.34
2019-01-14T22:04:29.025Z,98446.60
2019-01-14T22:07:05.872Z,98443.33
2019-01-14T22:09:44.563Z,98449.67
2019-01-14T22:12:19.983Z,98461.72
2019-01-14T22:14:50.644Z,98459.52
2019-01-14T22:17:23.666Z,98466.22
2019-01-14T22:19:54.233Z,98479.67
2019-01-14T22:22:30.143Z,98488.10
2019-01-14T22:25:00.668Z,98487.23
2019-01-14T22:27:33.099Z,98488.20
2019-01-14T22:30:08.640Z,98498.02
2019-01-14T22:32:42.128Z,98489.14
2019-01-14T22:35:13.339Z,98490.22
2019-01-14T22:37:45.644Z,98484.63
2019-01-14T22:40:19.860Z,98478.25
2019-01-14T22:42:54.677Z,98475.30
2019-01-14T22:45:25.593Z,98478.13
2019-01-14T22:47:56.891Z,98479.31
2019-01-14T22:50:33.339Z,98483.02
2019-01-14T22:53:06.846Z,98487.13
2019-01-14T22:55:42.417Z,98489.47
2019-01-14T22:58:14.832Z,98504.68
2019-01-14T23:01:08.577Z,98502.61
2019-01-14T23:03:39.387Z,98502.02
2019-01-14T23:06:17.996Z,98508.41
2019-01-14T23:08:50.609Z,98504.53
2019-01-14T23:11:22.255Z,98510.20
2019-01-14T23:13:54.313Z,98508.84
2019-01-14T23:16:26.502Z,98513.27
2019-01-14T23:18:59.104Z,98513.66
2019-01-14T23:21:33.713Z,98519.80
2019-01-14T23:24:09.138Z,98526.70
2019-01-14T23:26:41.713Z,98525.11
2019-01-14T23:29:24.415Z,98523.63
2019-01-14T23:31:55.628Z,98524.50
2019-01-14T23:34:31.693Z,98526.77
2019-01-14T23:37:02.825Z,98531.94
2019-01-14T23:39:35.405Z,98530.28
2019-01-14T23:42:29.545Z,98532.95
2019-01-14T23:45:02.891Z,98525.13
2019-01-14T23:47:34.144Z,98526.49
2019-01-14T23:50:07.730Z,98530.16
2019-01-14T23:52:39.075Z,98527.99
2019-01-14T23:55:11.614Z,98521.33
2019-01-14T23:57:42.700Z,98517.69
